createdAt,value
2023-04-01T00:01:26.400Z,98240.16
2023-04-01T00:02:59.670Z,98241.75
2023-04-01T00:04:33.448Z,98235.53
2023-04-01T00:06:07.382Z,98247.81
2023-04-01T00:07:41.365Z,98238.97
2023-04-01T00:09:14.644Z,98242.25
2023-04-01T00:10:46.968Z,98229.88
2023-04-01T00:12:20.261Z,98238.28
2023-04-01T00:13:53.389Z,98236.28
2023-04-01T00:15:25.690Z,98222.22
2023-04-01T00:16:59.231Z,98219.72
2023-04-01T00:18:31.844Z,98226.53
2023-04-01T00:20:05.787Z,98228.91
2023-04-01T00:21:40.452Z,98232.16
2023-04-01T00:23:12.792Z,98228.03
2023-04-01T00:24:45.995Z,98229.03
2023-04-01T00:26:21.475Z,98235.00
2023-04-01T00:27:54.684Z,98225.75
2023-04-01T00:29:30.280Z,98232.88
2023-04-01T00:31:07.330Z,98225.91
2023-04-01T00:32:40.877Z,98216.34
2023-04-01T00:34:14.831Z,98213.63
2023-04-01T00:35:48.804Z,98210.09
2023-04-01T00:37:23.908Z,98215.38
2023-04-01T00:38:57.183Z,98207.47
2023-04-01T00:40:33.542Z,98215.50
2023-04-01T00:42:07.151Z,98205.97
2023-04-01T00:43:40.379Z,98211.38
2023-04-01T00:45:29.303Z,98201.66
2023-04-01T00:47:03.339Z,98200.09
2023-04-01T00:48:40.568Z,98198.53
2023-04-01T00:50:13.098Z,98200.41
2023-04-01T00:51:49.182Z,98204.50
2023-04-01T00:53:25.003Z,98197.78
2023-04-01T00:55:02.225Z,98210.19
2023-04-01T00:56:38.211Z,98204.28
2023-04-01T00:58:15.700Z,98199.13
2023-04-01T00:59:53.815Z,98198.31
2023-04-01T01:01:28.137Z,98196.63
2023-04-01T01:03:01.565Z,98199.88
2023-04-01T01:04:36.443Z,98189.22
2023-04-01T01:06:26.317Z,98187.34
2023-04-01T01:08:07.231Z,98189.13
2023-04-01T01:09:53.312Z,98185.66
2023-04-01T01:11:42.619Z,98178.69
2023-04-01T01:13:21.510Z,98182.25
2023-04-01T01:15:02.452Z,98183.00
2023-04-01T01:16:41.863Z,98185.66
2023-04-01T01:18:22.003Z,98180.41
2023-04-01T01:20:50.599Z,98181.22
2023-04-01T01:22:38.237Z,98187.25
2023-04-01T01:24:36.678Z,98187.25
2023-04-01T01:26:38.913Z,98180.28
2023-04-01T01:28:31.044Z,98176.78
2023-04-01T01:30:27.785Z,98176.72
2023-04-01T01:32:07.807Z,98182.00
2023-04-01T01:34:10.205Z,98171.47
2023-04-01T01:35:48.760Z,98175.72
2023-04-01T01:37:29.617Z,98173.03
2023-04-01T01:39:04.978Z,98176.47
2023-04-01T01:40:40.631Z,98173.03
2023-04-01T01:42:18.113Z,98171.34
2023-04-01T01:43:53.910Z,98168.91
2023-04-01T01:45:28.657Z,98165.03
2023-04-01T01:47:03.245Z,98168.84
2023-04-01T01:48:37.146Z,98169.25
2023-04-01T01:50:12.978Z,98169.66
2023-04-01T01:51:49.159Z,98169.53
2023-04-01T01:53:21.667Z,98166.91
2023-04-01T01:54:57.469Z,98165.97
2023-04-01T01:56:36.478Z,98160.69
2023-04-01T01:58:13.221Z,98146.84
2023-04-01T01:59:49.819Z,98151.38
2023-04-01T02:01:33.650Z,98150.44
2023-04-01T02:03:17.272Z,98157.56
2023-04-01T02:04:51.830Z,98152.28
2023-04-01T02:06:27.898Z,98149.66
2023-04-01T02:08:08.804Z,98155.69
2023-04-01T02:09:42.828Z,98153.75
2023-04-01T02:11:21.211Z,98145.31
2023-04-01T02:13:02.253Z,98151.06
2023-04-01T02:14:42.265Z,98141.78
2023-04-01T02:16:22.040Z,98145.34
2023-04-01T02:17:58.160Z,98145.06
2023-04-01T02:19:36.238Z,98151.66
2023-04-01T02:21:11.277Z,98155.78
2023-04-01T02:22:49.380Z,98138.88
2023-04-01T02:24:25.799Z,98149.16
2023-04-01T02:25:59.026Z,98137.69
2023-04-01T02:27:33.142Z,98138.34
2023-04-01T02:29:09.254Z,98144.34
2023-04-01T02:30:45.299Z,98137.38
2023-04-01T02:32:21.558Z,98132.63
2023-04-01T02:33:55.695Z,98128.19
2023-04-01T02:35:28.172Z,98123.72
2023-04-01T02:37:01.715Z,98137.66
2023-04-01T02:38:37.493Z,98140.97
2023-04-01T02:40:14.697Z,98125.31
2023-04-01T02:41:48.352Z,98127.13
2023-04-01T02:43:22.491Z,98133.25
2023-04-01T02:44:55.710Z,98110.72
2023-04-01T02:46:29.098Z,98132.41
2023-04-01T02:48:01.245Z,98119.66
2023-04-01T02:49:34.555Z,98120.22
2023-04-01T02:51:07.694Z,98130.22
2023-04-01T02:52:41.124Z,98118.25
2023-04-01T02:54:14.788Z,98117.53
2023-04-01T02:55:52.884Z,98117.13
2023-04-01T02:57:26.670Z,98119.81
2023-04-01T02:59:00.062Z,98115.69
2023-04-01T03:00:33.171Z,98115.81
2023-04-01T03:02:07.763Z,98106.22
2023-04-01T03:03:41.115Z,98112.47
2023-04-01T03:05:13.849Z,98103.81
2023-04-01T03:06:47.156Z,98101.94
2023-04-01T03:08:20.432Z,98104.50
2023-04-01T03:09:53.562Z,98108.13
2023-04-01T03:11:28.457Z,98108.00
2023-04-01T03:13:01.581Z,98108.13
2023-04-01T03:14:34.893Z,98105.50
2023-04-01T03:16:08.193Z,98103.94
2023-04-01T03:17:43.232Z,98098.66
2023-04-01T03:19:16.054Z,98096.94
2023-04-01T03:20:49.871Z,98093.41
2023-04-01T03:22:23.400Z,98093.78
2023-04-01T03:23:55.913Z,98105.34
2023-04-01T03:25:29.707Z,98109.69
2023-04-01T03:27:04.741Z,98096.53
2023-04-01T03:28:36.867Z,98099.03
2023-04-01T03:30:11.775Z,98107.72
2023-04-01T03:31:53.931Z,98098.91
2023-04-01T03:33:26.290Z,98102.34
2023-04-01T03:34:59.706Z,98101.34
2023-04-01T03:36:33.299Z,98101.25
2023-04-01T03:38:06.900Z,98098.66
2023-04-01T03:39:41.388Z,98089.84
2023-04-01T03:41:15.841Z,98095.91
2023-04-01T03:42:51.847Z,98094.59
2023-04-01T03:44:25.675Z,98100.50
2023-04-01T03:45:59.915Z,98098.78
2023-04-01T03:47:33.378Z,98095.38
2023-04-01T03:49:12.506Z,98091.16
2023-04-01T03:50:46.860Z,98082.56
2023-04-01T03:52:22.031Z,98077.69
2023-04-01T03:53:55.470Z,98090.75
2023-04-01T03:55:28.096Z,98088.34
2023-04-01T03:57:01.543Z,98097.34
2023-04-01T03:58:37.850Z,98103.25
2023-04-01T04:00:13.650Z,98103.81
2023-04-01T04:01:53.240Z,98100.25
2023-04-01T04:03:27.363Z,98102.88
2023-04-01T04:05:00.818Z,98095.25
2023-04-01T04:06:35.778Z,98095.00
2023-04-01T04:08:09.195Z,98107.22
2023-04-01T04:09:43.388Z,98107.09
2023-04-01T04:11:17.326Z,98098.25
2023-04-01T04:12:51.969Z,98105.91
2023-04-01T04:14:28.529Z,98094.31
2023-04-01T04:16:02.115Z,98114.69
2023-04-01T04:17:37.711Z,98102.31
2023-04-01T04:19:10.918Z,98102.06
2023-04-01T04:20:48.225Z,98101.06
2023-04-01T04:22:21.743Z,98092.59
2023-04-01T04:23:55.127Z,98086.53
2023-04-01T04:25:28.783Z,98084.97
2023-04-01T04:27:02.183Z,98100.97
2023-04-01T04:28:35.900Z,98089.84
2023-04-01T04:30:12.035Z,98082.81
2023-04-01T04:31:45.370Z,98080.25
2023-04-01T04:33:18.393Z,98091.56
2023-04-01T04:34:51.848Z,98085.25
2023-04-01T04:36:26.148Z,98097.47
2023-04-01T04:37:58.950Z,98091.97
2023-04-01T04:39:33.050Z,98092.53
2023-04-01T04:41:11.328Z,98082.78
2023-04-01T04:42:44.936Z,98088.97
2023-04-01T04:44:22.058Z,98078.19
2023-04-01T04:45:56.905Z,98079.75
2023-04-01T04:47:29.152Z,98073.25
2023-04-01T04:49:02.603Z,98081.63
2023-04-01T04:50:35.728Z,98074.38
2023-04-01T04:52:09.311Z,98081.19
2023-04-01T04:53:42.627Z,98083.00
2023-04-01T04:55:16.196Z,98088.34
2023-04-01T04:56:53.804Z,98083.03
2023-04-01T04:58:28.415Z,98080.75
2023-04-01T05:00:02.090Z,98076.19
2023-04-01T05:01:50.931Z,98069.81
2023-04-01T05:03:24.247Z,98073.25
2023-04-01T05:04:57.682Z,98064.97
2023-04-01T05:06:32.409Z,98065.34
2023-04-01T05:08:06.183Z,98063.28
2023-04-01T05:09:39.388Z,98077.09
2023-04-01T05:11:16.035Z,98067.25
2023-04-01T05:12:49.306Z,98062.75
2023-04-01T05:14:25.940Z,98064.47
2023-04-01T05:16:09.597Z,98062.31
2023-04-01T05:17:45.156Z,98063.09
2023-04-01T05:19:18.423Z,98065.44
2023-04-01T05:20:53.044Z,98066.91
2023-04-01T05:22:26.521Z,98063.00
2023-04-01T05:24:00.005Z,98060.84
2023-04-01T05:25:34.333Z,98056.97
2023-04-01T05:27:07.930Z,98049.06
2023-04-01T05:28:45.043Z,98062.44
2023-04-01T05:30:18.667Z,98057.78
2023-04-01T05:32:14.866Z,98052.22
2023-04-01T05:33:49.546Z,98048.50
2023-04-01T05:35:22.968Z,98048.66
2023-04-01T05:36:55.174Z,98048.78
2023-04-01T05:38:28.369Z,98044.47
2023-04-01T05:40:01.773Z,98046.34
2023-04-01T05:41:38.451Z,98046.25
2023-04-01T05:43:11.652Z,98042.63
2023-04-01T05:44:45.647Z,98041.69
2023-04-01T05:46:38.143Z,98055.47
2023-04-01T05:48:27.023Z,98041.19
2023-04-01T05:50:02.441Z,98042.00
2023-04-01T05:51:35.759Z,98045.31
2023-04-01T05:53:09.102Z,98043.53
2023-04-01T05:54:43.946Z,98040.59
2023-04-01T05:56:17.501Z,98046.34
2023-04-01T05:57:56.233Z,98045.31
2023-04-01T05:59:32.171Z,98036.38
2023-04-01T06:01:11.469Z,98041.22
2023-04-01T06:02:50.262Z,98027.75
2023-04-01T06:04:23.754Z,98029.50
2023-04-01T06:05:58.697Z,98034.63
2023-04-01T06:07:32.041Z,98030.97
2023-04-01T06:09:14.392Z,98030.50
2023-04-01T06:11:07.026Z,98039.19
2023-04-01T06:12:52.563Z,98026.16
2023-04-01T06:14:38.337Z,98037.56
2023-04-01T06:16:21.385Z,98040.28
2023-04-01T06:18:27.907Z,98029.28
2023-04-01T06:20:11.730Z,98039.19
2023-04-01T06:22:18.379Z,98031.28
2023-04-01T06:24:07.600Z,98031.84
2023-04-01T06:26:00.256Z,98036.38
2023-04-01T06:27:52.764Z,98029.56
2023-04-01T06:29:51.213Z,98043.69
2023-04-01T06:31:50.865Z,98009.88
2023-04-01T06:33:45.990Z,98000.94
2023-04-01T06:35:40.692Z,98016.69
2023-04-01T06:37:38.597Z,98005.03
2023-04-01T06:39:30.286Z,98009.94
2023-04-01T06:41:18.389Z,98003.03
2023-04-01T06:43:10.108Z,97999.75
2023-04-01T06:45:35.472Z,97991.38
2023-04-01T06:47:45.647Z,97987.81
2023-04-01T06:49:50.428Z,97977.94
2023-04-01T06:51:52.636Z,97962.97
2023-04-01T06:53:56.998Z,97950.38
2023-04-01T06:56:12.800Z,97950.47
2023-04-01T06:58:24.410Z,97974.00
2023-04-01T07:00:02.505Z,97978.53
2023-04-01T07:01:40.104Z,98007.00
2023-04-01T07:03:24.359Z,98010.22
2023-04-01T07:05:00.219Z,98006.63
2023-04-01T07:06:37.787Z,97991.63
2023-04-01T07:08:15.870Z,97990.72
2023-04-01T07:09:54.366Z,97961.81
2023-04-01T07:11:39.749Z,97958.31
2023-04-01T07:13:37.472Z,97966.84
2023-04-01T07:15:23.406Z,97964.88
2023-04-01T07:17:03.248Z,97958.28
2023-04-01T07:18:44.317Z,97959.13
2023-04-01T07:20:25.156Z,97946.91
2023-04-01T07:22:02.966Z,97949.28
2023-04-01T07:23:54.614Z,97951.44
2023-04-01T07:25:44.667Z,97947.94
2023-04-01T07:27:50.434Z,97938.25
2023-04-01T07:29:25.064Z,97939.06
2023-04-01T07:31:12.968Z,97932.25
2023-04-01T07:32:53.179Z,97906.72
2023-04-01T07:34:30.471Z,97878.88
2023-04-01T07:36:10.723Z,97853.16
2023-04-01T07:37:52.432Z,97859.75
2023-04-01T07:39:36.603Z,97868.03
2023-04-01T07:41:28.443Z,97892.66
2023-04-01T07:43:27.283Z,97905.50
2023-04-01T07:45:31.919Z,97898.69
2023-04-01T07:47:22.001Z,97909.00
2023-04-01T07:49:00.636Z,97922.19
2023-04-01T07:50:38.995Z,97929.63
2023-04-01T07:52:21.665Z,97929.25
2023-04-01T07:54:08.445Z,97921.44
2023-04-01T07:55:49.135Z,97910.53
2023-04-01T07:57:27.596Z,97915.94
2023-04-01T07:59:12.422Z,97926.22
2023-04-01T08:01:13.919Z,97913.88
2023-04-01T08:03:11.901Z,97907.84
2023-04-01T08:05:05.484Z,97904.00
2023-04-01T08:06:47.382Z,97899.31
2023-04-01T08:08:28.140Z,97894.31
2023-04-01T08:10:15.573Z,97885.06
2023-04-01T08:12:23.058Z,97884.53
2023-04-01T08:14:18.579Z,97880.59
2023-04-01T08:16:18.536Z,97871.28
2023-04-01T08:18:11.508Z,97859.78
2023-04-01T08:19:58.443Z,97858.28
2023-04-01T08:21:43.802Z,97849.22
2023-04-01T08:23:20.833Z,97865.78
2023-04-01T08:24:58.363Z,97873.56
2023-04-01T08:26:37.265Z,97863.66
2023-04-01T08:28:15.942Z,97866.78
2023-04-01T08:29:57.641Z,97859.50
2023-04-01T08:31:37.378Z,97860.59
2023-04-01T08:33:17.976Z,97849.78
2023-04-01T08:35:01.700Z,97837.88
2023-04-01T08:36:45.824Z,97837.00
2023-04-01T08:38:28.726Z,97845.09
2023-04-01T08:40:12.577Z,97841.44
2023-04-01T08:42:19.629Z,97831.06
2023-04-01T08:44:21.783Z,97845.56
2023-04-01T08:46:19.835Z,97839.38
2023-04-01T08:48:09.481Z,97838.53
2023-04-01T08:50:00.469Z,97844.00
2023-04-01T08:52:34.436Z,97832.94
2023-04-01T08:54:32.309Z,97833.53
2023-04-01T08:56:17.353Z,97827.53
2023-04-01T08:58:31.528Z,97824.41
2023-04-01T09:00:33.773Z,97819.03
2023-04-01T09:03:05.383Z,97811.81
2023-04-01T09:05:06.845Z,97808.16
2023-04-01T09:07:08.829Z,97807.84
2023-04-01T09:09:01.393Z,97804.00
2023-04-01T09:10:58.918Z,97786.09
2023-04-01T09:13:10.999Z,97783.97
2023-04-01T09:15:19.223Z,97779.94
2023-04-01T09:17:35.251Z,97773.16
2023-04-01T09:19:19.554Z,97769.19
2023-04-01T09:21:20.012Z,97758.41
2023-04-01T09:23:08.473Z,97759.16
2023-04-01T09:24:58.854Z,97759.72
2023-04-01T09:27:09.262Z,97756.38
2023-04-01T09:28:53.548Z,97761.34
2023-04-01T09:31:03.402Z,97764.31
2023-04-01T09:33:09.029Z,97766.31
2023-04-01T09:35:13.403Z,97775.63
2023-04-01T09:36:48.598Z,97775.38
2023-04-01T09:38:26.155Z,97791.19
2023-04-01T09:40:14.452Z,97776.81
2023-04-01T09:42:03.716Z,97767.13
2023-04-01T09:44:01.072Z,97764.44
2023-04-01T09:45:50.398Z,97756.00
2023-04-01T09:47:42.588Z,97760.66
2023-04-01T09:49:41.175Z,97765.28
2023-04-01T09:51:28.643Z,97738.63
2023-04-01T09:53:17.039Z,97734.53
2023-04-01T09:55:02.107Z,97726.28
2023-04-01T09:57:07.000Z,97708.47
2023-04-01T09:59:10.730Z,97720.03
2023-04-01T10:01:53.678Z,97708.53
2023-04-01T10:04:10.766Z,97710.47
2023-04-01T10:06:35.651Z,97708.13
2023-04-01T10:08:31.059Z,97708.34
2023-04-01T10:10:29.970Z,97707.69
2023-04-01T10:12:27.236Z,97697.63
2023-04-01T10:14:35.833Z,97686.59
2023-04-01T10:16:32.429Z,97669.41
2023-04-01T10:18:46.921Z,97656.28
2023-04-01T10:21:07.998Z,97647.53
2023-04-01T10:23:14.169Z,97640.22
2023-04-01T10:25:07.530Z,97641.72
2023-04-01T10:27:00.782Z,97639.22
2023-04-01T10:29:40.321Z,97627.66
2023-04-01T10:31:43.217Z,97638.59
2023-04-01T10:33:43.914Z,97648.72
2023-04-01T10:35:31.939Z,97653.81
2023-04-01T10:37:18.022Z,97657.38
2023-04-01T10:39:19.879Z,97654.50
2023-04-01T10:41:41.512Z,97661.72
2023-04-01T10:44:15.995Z,97651.13
2023-04-01T10:46:17.600Z,97645.06
2023-04-01T10:48:25.031Z,97650.13
2023-04-01T10:50:26.344Z,97626.41
2023-04-01T10:52:47.385Z,97638.31
2023-04-01T10:54:44.186Z,97640.59
2023-04-01T10:57:01.164Z,97636.34
2023-04-01T10:59:18.653Z,97627.66
2023-04-01T11:02:11.913Z,97608.44
2023-04-01T11:04:42.849Z,97611.88
2023-04-01T11:07:41.809Z,97608.59
2023-04-01T11:09:42.530Z,97602.00
2023-04-01T11:12:05.995Z,97605.94
2023-04-01T11:14:19.141Z,97598.91
2023-04-01T11:16:17.149Z,97591.97
2023-04-01T11:18:35.862Z,97588.72
2023-04-01T11:20:54.289Z,97573.97
2023-04-01T11:22:58.883Z,97580.16
2023-04-01T11:25:00.326Z,97578.44
2023-04-01T11:27:06.419Z,97575.53
2023-04-01T11:29:11.819Z,97568.06
2023-04-01T11:30:59.834Z,97551.16
2023-04-01T11:32:56.052Z,97557.22
2023-04-01T11:34:53.895Z,97552.19
2023-04-01T11:36:50.411Z,97547.81
2023-04-01T11:38:49.143Z,97550.56
2023-04-01T11:40:49.941Z,97549.22
2023-04-01T11:42:47.757Z,97540.22
2023-04-01T11:44:56.165Z,97545.28
2023-04-01T11:46:47.247Z,97542.16
2023-04-01T11:48:39.186Z,97531.97
2023-04-01T11:50:28.078Z,97516.97
2023-04-01T11:52:20.681Z,97526.66
2023-04-01T11:54:06.483Z,97522.13
2023-04-01T11:55:54.145Z,97510.63
2023-04-01T11:57:45.692Z,97511.69
2023-04-01T11:59:55.033Z,97490.81
2023-04-01T12:01:39.075Z,97513.91
2023-04-01T12:03:31.908Z,97517.72
2023-04-01T12:05:39.093Z,97512.66
2023-04-01T12:07:24.466Z,97502.69
2023-04-01T12:09:04.511Z,97505.44
2023-04-01T12:10:45.424Z,97507.19
2023-04-01T12:12:26.483Z,97501.28
2023-04-01T12:14:09.412Z,97492.81
2023-04-01T12:15:58.584Z,97504.34
2023-04-01T12:17:42.690Z,97511.09
2023-04-01T12:19:24.425Z,97486.59
2023-04-01T12:21:04.667Z,97499.69
2023-04-01T12:22:50.718Z,97504.72
2023-04-01T12:24:49.051Z,97503.03
2023-04-01T12:26:45.673Z,97516.13
2023-04-01T12:28:28.124Z,97493.41
2023-04-01T12:30:42.796Z,97494.25
2023-04-01T12:32:22.732Z,97484.81
2023-04-01T12:34:10.542Z,97496.25
2023-04-01T12:36:01.703Z,97487.09
2023-04-01T12:37:43.676Z,97488.69
2023-04-01T12:39:51.586Z,97489.34
2023-04-01T12:41:35.422Z,97478.59
2023-04-01T12:43:24.237Z,97489.78
2023-04-01T12:45:14.630Z,97474.53
2023-04-01T12:47:06.853Z,97506.59
2023-04-01T12:49:13.479Z,97480.56
2023-04-01T12:51:19.802Z,97496.13
2023-04-01T12:53:12.397Z,97493.78
2023-04-01T12:55:21.933Z,97496.00
2023-04-01T12:57:12.100Z,97512.22
2023-04-01T12:59:34.303Z,97491.16
2023-04-01T13:01:28.437Z,97501.88
2023-04-01T13:03:23.701Z,97511.75
2023-04-01T13:05:22.759Z,97513.09
2023-04-01T13:07:17.227Z,97489.56
2023-04-01T13:09:00.326Z,97496.94
2023-04-01T13:10:45.232Z,97499.38
2023-04-01T13:12:51.288Z,97506.97
2023-04-01T13:14:53.072Z,97506.97
2023-04-01T13:16:29.524Z,97502.59
2023-04-01T13:18:17.474Z,97516.16
2023-04-01T13:20:04.897Z,97507.25
2023-04-01T13:21:53.042Z,97496.84
2023-04-01T13:23:38.259Z,97505.22
2023-04-01T13:25:28.417Z,97505.09
2023-04-01T13:27:11.120Z,97496.00
2023-04-01T13:28:53.190Z,97501.03
2023-04-01T13:30:31.188Z,97492.25
2023-04-01T13:32:33.205Z,97505.56
2023-04-01T13:34:31.268Z,97507.31
2023-04-01T13:36:19.511Z,97494.66
2023-04-01T13:38:05.411Z,97512.78
2023-04-01T13:39:56.205Z,97532.53
2023-04-01T13:41:51.157Z,97522.25
2023-04-01T13:43:28.126Z,97528.75
2023-04-01T13:45:05.746Z,97532.06
2023-04-01T13:46:57.015Z,97533.88
2023-04-01T13:49:01.340Z,97551.81
2023-04-01T13:50:59.823Z,97556.38
2023-04-01T13:53:00.413Z,97558.88
2023-04-01T13:55:03.777Z,97581.16
2023-04-01T13:56:47.886Z,97595.81
2023-04-01T13:59:00.334Z,97604.81
2023-04-01T14:00:41.698Z,97604.00
2023-04-01T14:02:31.642Z,97622.50
2023-04-01T14:04:31.921Z,97634.41
2023-04-01T14:06:15.336Z,97642.91
2023-04-01T14:08:01.807Z,97651.09
2023-04-01T14:10:01.992Z,97672.16
2023-04-01T14:11:46.634Z,97679.94
2023-04-01T14:13:30.762Z,97696.66
2023-04-01T14:15:23.582Z,97717.19
2023-04-01T14:17:07.119Z,97740.88
2023-04-01T14:18:55.542Z,97758.31
2023-04-01T14:20:39.014Z,97768.66
2023-04-01T14:22:22.847Z,97806.63
2023-04-01T14:24:25.822Z,97813.81
2023-04-01T14:26:28.243Z,97840.81
2023-04-01T14:28:11.566Z,97828.59
2023-04-01T14:29:59.489Z,97855.59
2023-04-01T14:32:02.175Z,97872.63
2023-04-01T14:33:44.660Z,97888.16
2023-04-01T14:35:41.435Z,97896.25
2023-04-01T14:37:34.318Z,97904.34
2023-04-01T14:39:36.694Z,97895.00
2023-04-01T14:41:22.788Z,97885.47
2023-04-01T14:43:12.929Z,97893.09
2023-04-01T14:45:20.371Z,97886.31
2023-04-01T14:47:24.886Z,97865.91
2023-04-01T14:49:03.034Z,97836.38
2023-04-01T14:50:45.788Z,97833.41
2023-04-01T14:52:27.168Z,97808.59
2023-04-01T14:54:10.491Z,97785.66
2023-04-01T14:55:53.138Z,97756.78
2023-04-01T14:57:27.907Z,97739.75
2023-04-01T14:59:02.874Z,97764.34
2023-04-01T15:00:50.030Z,97790.88
2023-04-01T15:02:46.742Z,97775.06
2023-04-01T15:04:49.731Z,97774.66
2023-04-01T15:06:53.565Z,97759.66
2023-04-01T15:08:31.221Z,97744.44
2023-04-01T15:10:20.863Z,97726.84
2023-04-01T15:12:05.714Z,97720.41
2023-04-01T15:14:01.604Z,97723.06
2023-04-01T15:15:58.759Z,97712.94
2023-04-01T15:17:45.881Z,97705.28
2023-04-01T15:19:27.169Z,97692.75
2023-04-01T15:21:20.759Z,97685.72
2023-04-01T15:23:09.200Z,97690.22
2023-04-01T15:24:49.289Z,97685.22
2023-04-01T15:26:53.403Z,97682.69
2023-04-01T15:28:35.646Z,97669.03
2023-04-01T15:30:33.083Z,97648.59
2023-04-01T15:32:18.976Z,97655.69
2023-04-01T15:34:22.937Z,97672.84
2023-04-01T15:36:04.204Z,97666.91
2023-04-01T15:37:48.192Z,97653.47
2023-04-01T15:39:27.785Z,97663.59
2023-04-01T15:41:09.956Z,97674.72
2023-04-01T15:42:59.520Z,97682.22
2023-04-01T15:45:04.129Z,97679.50
2023-04-01T15:46:47.013Z,97682.97
2023-04-01T15:48:35.757Z,97678.66
2023-04-01T15:50:31.068Z,97689.50
2023-04-01T15:52:21.614Z,97688.47
2023-04-01T15:54:10.558Z,97693.16
2023-04-01T15:55:50.548Z,97691.75
2023-04-01T15:57:31.022Z,97693.22
2023-04-01T15:59:19.012Z,97688.84
2023-04-01T16:00:57.301Z,97700.00
2023-04-01T16:02:37.272Z,97705.81
2023-04-01T16:04:27.945Z,97703.25
2023-04-01T16:06:23.249Z,97696.13
2023-04-01T16:08:18.670Z,97692.38
2023-04-01T16:10:08.098Z,97717.16
2023-04-01T16:11:53.126Z,97717.72
2023-04-01T16:13:43.960Z,97741.06
2023-04-01T16:15:27.097Z,97744.91
2023-04-01T16:17:21.597Z,97753.63
2023-04-01T16:19:10.111Z,97760.03
2023-04-01T16:20:53.463Z,97745.16
2023-04-01T16:22:33.255Z,97736.50
2023-04-01T16:24:17.485Z,97734.44
2023-04-01T16:26:00.032Z,97750.63
2023-04-01T16:27:43.548Z,97760.63
2023-04-01T16:29:26.032Z,97751.69
2023-04-01T16:31:06.536Z,97755.75
2023-04-01T16:32:46.259Z,97757.69
2023-04-01T16:34:23.529Z,97752.59
2023-04-01T16:36:02.039Z,97765.34
2023-04-01T16:37:42.118Z,97761.75
2023-04-01T16:39:30.036Z,97770.66
2023-04-01T16:41:15.373Z,97771.75
2023-04-01T16:42:53.750Z,97774.72
2023-04-01T16:44:28.597Z,97773.03
2023-04-01T16:46:30.205Z,97766.03
2023-04-01T16:48:13.627Z,97771.56
2023-04-01T16:49:53.344Z,97761.16
2023-04-01T16:51:35.101Z,97763.31
2023-04-01T16:53:17.123Z,97769.06
2023-04-01T16:54:55.603Z,97776.72
2023-04-01T16:56:40.187Z,97745.88
2023-04-01T16:58:22.731Z,97765.94
2023-04-01T17:00:02.019Z,97772.44
2023-04-01T17:01:45.151Z,97778.47
2023-04-01T17:03:23.984Z,97767.00
2023-04-01T17:05:03.014Z,97772.09
2023-04-01T17:06:45.908Z,97778.47
2023-04-01T17:08:31.387Z,97772.09
2023-04-01T17:10:23.777Z,97775.06
2023-04-01T17:12:04.379Z,97797.34
2023-04-01T17:13:47.047Z,97792.03
2023-04-01T17:15:31.287Z,97795.88
2023-04-01T17:17:18.086Z,97789.47
2023-04-01T17:18:58.013Z,97803.06
2023-04-01T17:20:42.747Z,97801.16
2023-04-01T17:22:31.810Z,97816.00
2023-04-01T17:24:21.140Z,97821.09
2023-04-01T17:26:08.273Z,97816.97
2023-04-01T17:27:50.183Z,97825.13
2023-04-01T17:29:31.040Z,97850.38
2023-04-01T17:31:13.110Z,97836.13
2023-04-01T17:33:05.042Z,97837.66
2023-04-01T17:34:48.936Z,97840.19
2023-04-01T17:36:35.426Z,97842.72
2023-04-01T17:38:22.088Z,97855.25
2023-04-01T17:40:06.803Z,97876.44
2023-04-01T17:41:49.821Z,97884.69
2023-04-01T17:43:36.545Z,97883.63
2023-04-01T17:45:13.681Z,97873.03
2023-04-01T17:47:01.706Z,97897.63
2023-04-01T17:48:44.544Z,97930.16
2023-04-01T17:50:24.359Z,97963.75
2023-04-01T17:52:06.758Z,97984.03
2023-04-01T17:53:50.284Z,97955.81
2023-04-01T17:55:42.056Z,97956.78
2023-04-01T17:57:40.972Z,97989.13
2023-04-01T17:59:25.359Z,97998.66
2023-04-01T18:01:10.143Z,97984.63
2023-04-01T18:02:50.933Z,97995.81
2023-04-01T18:05:01.007Z,98002.78
2023-04-01T18:06:39.530Z,97998.72
2023-04-01T18:08:19.777Z,98010.53
2023-04-01T18:10:18.005Z,98000.59
2023-04-01T18:12:01.631Z,97998.03
2023-04-01T18:13:58.080Z,98004.84
2023-04-01T18:15:39.944Z,97997.75
2023-04-01T18:17:25.907Z,97988.38
2023-04-01T18:19:07.402Z,97978.25
2023-04-01T18:20:53.402Z,97986.13
2023-04-01T18:22:54.976Z,97984.63
2023-04-01T18:24:32.903Z,97986.72
2023-04-01T18:26:14.048Z,97976.22
2023-04-01T18:27:51.573Z,97978.00
2023-04-01T18:29:37.690Z,97980.38
2023-04-01T18:31:27.154Z,97978.88
2023-04-01T18:33:07.458Z,97983.28
2023-04-01T18:34:53.151Z,97977.34
2023-04-01T18:36:38.122Z,97972.69
2023-04-01T18:38:15.538Z,97972.34
2023-04-01T18:39:56.924Z,97992.38
2023-04-01T18:41:38.186Z,97994.19
2023-04-01T18:43:19.741Z,97993.72
2023-04-01T18:44:58.642Z,97998.47
2023-04-01T18:46:41.304Z,98020.22
2023-04-01T18:48:25.508Z,97996.78
2023-04-01T18:50:08.826Z,98013.97
2023-04-01T18:51:51.140Z,98017.66
2023-04-01T18:53:33.165Z,98005.19
2023-04-01T18:55:36.237Z,98035.44
2023-04-01T18:57:15.599Z,98002.25
2023-04-01T18:58:55.433Z,98017.00
2023-04-01T19:00:35.132Z,98011.69
2023-04-01T19:02:22.222Z,98006.41
2023-04-01T19:04:05.775Z,98008.50
2023-04-01T19:05:42.334Z,98001.16
2023-04-01T19:07:42.734Z,98016.34
2023-04-01T19:09:26.943Z,98012.28
2023-04-01T19:11:19.130Z,98024.94
2023-04-01T19:13:09.689Z,98026.94
2023-04-01T19:14:56.404Z,98017.34
2023-04-01T19:16:47.124Z,98030.78
2023-04-01T19:18:37.135Z,98032.53
2023-04-01T19:20:21.764Z,98025.72
2023-04-01T19:22:00.520Z,98021.16
2023-04-01T19:24:09.894Z,98030.78
2023-04-01T19:25:50.302Z,98025.72
2023-04-01T19:27:36.214Z,98034.41
2023-04-01T19:29:24.550Z,98050.00
2023-04-01T19:31:01.334Z,98048.31
2023-04-01T19:32:51.084Z,98047.81
2023-04-01T19:34:31.341Z,98044.22
2023-04-01T19:36:13.824Z,98044.03
2023-04-01T19:37:53.851Z,98041.31
2023-04-01T19:39:39.888Z,98038.47
2023-04-01T19:41:27.766Z,98043.84
2023-04-01T19:43:10.900Z,98037.06
2023-04-01T19:44:56.637Z,98046.78
2023-04-01T19:46:36.013Z,98032.13
2023-04-01T19:48:23.006Z,98030.59
2023-04-01T19:50:07.847Z,98021.16
2023-04-01T19:51:51.261Z,98021.44
2023-04-01T19:53:34.495Z,98010.00
2023-04-01T19:55:20.880Z,98010.56
2023-04-01T19:57:03.511Z,98016.88
2023-04-01T19:58:46.810Z,98017.75
2023-04-01T20:00:28.227Z,98019.28
2023-04-01T20:02:24.235Z,98026.06
2023-04-01T20:04:04.691Z,98018.91
2023-04-01T20:06:04.096Z,98019.44
2023-04-01T20:07:43.499Z,98027.78
2023-04-01T20:09:43.330Z,98031.56
2023-04-01T20:11:30.617Z,98024.75
2023-04-01T20:13:14.311Z,98027.72
2023-04-01T20:14:51.293Z,98023.56
2023-04-01T20:16:45.960Z,98030.75
2023-04-01T20:18:24.443Z,98030.16
2023-04-01T20:20:01.553Z,98033.03
2023-04-01T20:21:38.723Z,98035.06
2023-04-01T20:23:42.682Z,98030.81
2023-04-01T20:25:21.014Z,98028.44
2023-04-01T20:27:05.516Z,98033.06
2023-04-01T20:28:49.835Z,98035.81
2023-04-01T20:30:45.767Z,98039.59
2023-04-01T20:32:40.754Z,98023.72
2023-04-01T20:34:28.981Z,98037.09
2023-04-01T20:36:13.980Z,98046.38
2023-04-01T20:37:56.116Z,98031.91
2023-04-01T20:40:19.932Z,98051.84
2023-04-01T20:42:08.925Z,98051.69
2023-04-01T20:43:55.136Z,98044.69
2023-04-01T20:45:36.621Z,98045.00
2023-04-01T20:47:25.167Z,98050.03
2023-04-01T20:49:25.733Z,98055.03